sensor_id;sensor_type;location;lat;lon;timestamp;P1;durP1;ratioP1;P2;durP2;ratioP2
37701;SDS011;23548;51.196;6.838;2023-02-18T00:01:25;18.73;;;14.38;;
37701;SDS011;23548;51.196;6.838;2023-02-18T00:03:56;20.02;;;14.90;;
37701;SDS011;23548;51.196;6.838;2023-02-18T00:06:28;18.27;;;14.10;;
37701;SDS011;23548;51.196;6.838;2023-02-18T00:09:06;22.35;;;14.93;;
37701;SDS011;23548;51.196;6.838;2023-02-18T00:11:41;19.38;;;14.07;;
37701;SDS011;23548;51.196;6.838;2023-02-18T00:14:16;19.30;;;14.63;;
37701;SDS011;23548;51.196;6.838;2023-02-18T00:16:46;18.58;;;14.02;;
37701;SDS011;23548;51.196;6.838;2023-02-18T00:19:22;19.70;;;14.13;;
37701;SDS011;23548;51.196;6.838;2023-02-18T00:21:51;19.35;;;14.43;;
37701;SDS011;23548;51.196;6.838;2023-02-18T00:24:20;21.80;;;15.02;;
37701;SDS011;23548;51.196;6.838;2023-02-18T00:26:51;19.33;;;15.00;;
37701;SDS011;23548;51.196;6.838;2023-02-18T00:29:24;20.05;;;14.60;;
37701;SDS011;23548;51.196;6.838;2023-02-18T00:31:52;20.80;;;15.98;;
37701;SDS011;23548;51.196;6.838;2023-02-18T00:34:26;21.73;;;15.98;;
37701;SDS011;23548;51.196;6.838;2023-02-18T00:36:57;21.25;;;14.82;;
37701;SDS011;23548;51.196;6.838;2023-02-18T00:39:25;22.25;;;15.25;;
37701;SDS011;23548;51.196;6.838;2023-02-18T00:42:03;19.92;;;14.73;;
37701;SDS011;23548;51.196;6.838;2023-02-18T00:44:34;20.73;;;14.93;;
37701;SDS011;23548;51.196;6.838;2023-02-18T00:47:03;24.00;;;15.73;;
37701;SDS011;23548;51.196;6.838;2023-02-18T00:49:33;21.98;;;16.00;;
37701;SDS011;23548;51.196;6.838;2023-02-18T00:52:03;21.85;;;15.57;;
37701;SDS011;23548;51.196;6.838;2023-02-18T00:54:36;23.63;;;16.33;;
37701;SDS011;23548;51.196;6.838;2023-02-18T00:57:09;22.08;;;15.77;;
37701;SDS011;23548;51.196;6.838;2023-02-18T00:59:41;22.48;;;16.13;;
37701;SDS011;23548;51.196;6.838;2023-02-18T01:02:09;25.65;;;16.50;;
37701;SDS011;23548;51.196;6.838;2023-02-18T01:04:38;23.90;;;16.52;;
37701;SDS011;23548;51.196;6.838;2023-02-18T01:07:10;23.65;;;16.60;;
37701;SDS011;23548;51.196;6.838;2023-02-18T01:09:40;21.98;;;16.67;;
37701;SDS011;23548;51.196;6.838;2023-02-18T01:12:09;27.00;;;16.48;;
37701;SDS011;23548;51.196;6.838;2023-02-18T01:14:41;22.85;;;16.20;;
37701;SDS011;23548;51.196;6.838;2023-02-18T01:17:09;22.10;;;15.60;;
37701;SDS011;23548;51.196;6.838;2023-02-18T01:19:39;22.58;;;16.13;;
37701;SDS011;23548;51.196;6.838;2023-02-18T01:22:11;23.00;;;16.02;;
37701;SDS011;23548;51.196;6.838;2023-02-18T01:24:38;23.67;;;15.95;;
37701;SDS011;23548;51.196;6.838;2023-02-18T01:27:03;25.80;;;15.55;;
37701;SDS011;23548;51.196;6.838;2023-02-18T01:29:29;20.55;;;14.93;;
37701;SDS011;23548;51.196;6.838;2023-02-18T01:31:55;22.05;;;15.07;;
37701;SDS011;23548;51.196;6.838;2023-02-18T01:34:22;22.15;;;14.70;;
37701;SDS011;23548;51.196;6.838;2023-02-18T01:36:48;18.58;;;12.88;;
37701;SDS011;23548;51.196;6.838;2023-02-18T01:39:14;18.80;;;13.55;;
37701;SDS011;23548;51.196;6.838;2023-02-18T01:41:39;20.73;;;14.27;;
37701;SDS011;23548;51.196;6.838;2023-02-18T01:46:37;20.00;;;13.02;;
37701;SDS011;23548;51.196;6.838;2023-02-18T01:49:03;18.73;;;12.93;;
37701;SDS011;23548;51.196;6.838;2023-02-18T01:51:30;18.48;;;13.52;;
37701;SDS011;23548;51.196;6.838;2023-02-18T01:54:04;19.73;;;12.32;;
37701;SDS011;23548;51.196;6.838;2023-02-18T01:56:41;17.45;;;11.98;;
37701;SDS011;23548;51.196;6.838;2023-02-18T01:59:25;17.83;;;12.57;;
37701;SDS011;23548;51.196;6.838;2023-02-18T02:01:55;20.30;;;12.48;;
37701;SDS011;23548;51.196;6.838;2023-02-18T02:04:22;17.95;;;12.20;;
37701;SDS011;23548;51.196;6.838;2023-02-18T02:06:48;17.08;;;12.23;;
37701;SDS011;23548;51.196;6.838;2023-02-18T02:09:15;16.75;;;12.27;;
37701;SDS011;23548;51.196;6.838;2023-02-18T02:12:05;18.92;;;11.95;;
37701;SDS011;23548;51.196;6.838;2023-02-18T02:20:30;20.77;;;12.27;;
37701;SDS011;23548;51.196;6.838;2023-02-18T02:29:03;19.65;;;11.75;;
37701;SDS011;23548;51.196;6.838;2023-02-18T02:31:37;18.77;;;11.90;;
37701;SDS011;23548;51.196;6.838;2023-02-18T02:42:10;20.08;;;12.95;;
37701;SDS011;23548;51.196;6.838;2023-02-18T02:47:48;21.23;;;12.88;;
37701;SDS011;23548;51.196;6.838;2023-02-18T02:53:34;20.60;;;12.73;;
37701;SDS011;23548;51.196;6.838;2023-02-18T02:56:01;21.88;;;12.70;;
37701;SDS011;23548;51.196;6.838;2023-02-18T02:58:26;23.08;;;12.43;;
37701;SDS011;23548;51.196;6.838;2023-02-18T03:03:52;21.95;;;13.13;;
37701;SDS011;23548;51.196;6.838;2023-02-18T03:15:20;21.65;;;12.95;;
37701;SDS011;23548;51.196;6.838;2023-02-18T03:20:22;19.55;;;11.80;;
37701;SDS011;23548;51.196;6.838;2023-02-18T03:22:55;21.60;;;11.40;;
37701;SDS011;23548;51.196;6.838;2023-02-18T03:25:23;21.20;;;12.13;;
37701;SDS011;23548;51.196;6.838;2023-02-18T03:27:51;18.13;;;11.35;;
37701;SDS011;23548;51.196;6.838;2023-02-18T03:30:34;16.55;;;10.80;;
37701;SDS011;23548;51.196;6.838;2023-02-18T03:33:06;15.18;;;10.13;;
37701;SDS011;23548;51.196;6.838;2023-02-18T03:35:35;16.45;;;10.60;;
37701;SDS011;23548;51.196;6.838;2023-02-18T03:40:36;15.05;;;9.90;;
37701;SDS011;23548;51.196;6.838;2023-02-18T03:43:02;16.40;;;10.40;;
37701;SDS011;23548;51.196;6.838;2023-02-18T03:45:28;16.85;;;10.65;;
37701;SDS011;23548;51.196;6.838;2023-02-18T03:47:54;16.45;;;9.90;;
37701;SDS011;23548;51.196;6.838;2023-02-18T03:50:20;15.65;;;10.18;;
37701;SDS011;23548;51.196;6.838;2023-02-18T03:52:46;15.05;;;10.10;;
37701;SDS011;23548;51.196;6.838;2023-02-18T03:55:12;19.95;;;9.63;;
37701;SDS011;23548;51.196;6.838;2023-02-18T03:57:37;16.27;;;9.80;;
37701;SDS011;23548;51.196;6.838;2023-02-18T04:00:04;14.85;;;9.75;;
37701;SDS011;23548;51.196;6.838;2023-02-18T04:02:31;14.10;;;8.63;;
37701;SDS011;23548;51.196;6.838;2023-02-18T04:04:57;14.93;;;8.75;;
37701;SDS011;23548;51.196;6.838;2023-02-18T04:07:23;16.25;;;8.55;;
37701;SDS011;23548;51.196;6.838;2023-02-18T04:09:48;11.73;;;7.65;;
37701;SDS011;23548;51.196;6.838;2023-02-18T04:12:14;14.40;;;8.50;;
37701;SDS011;23548;51.196;6.838;2023-02-18T04:14:40;13.20;;;7.50;;
37701;SDS011;23548;51.196;6.838;2023-02-18T04:17:05;10.98;;;7.13;;
37701;SDS011;23548;51.196;6.838;2023-02-18T04:19:31;10.18;;;6.10;;
37701;SDS011;23548;51.196;6.838;2023-02-18T04:21:57;14.38;;;7.28;;
37701;SDS011;23548;51.196;6.838;2023-02-18T04:24:23;9.88;;;6.00;;
37701;SDS011;23548;51.196;6.838;2023-02-18T04:26:48;10.18;;;6.65;;
37701;SDS011;23548;51.196;6.838;2023-02-18T04:29:14;11.07;;;6.57;;
37701;SDS011;23548;51.196;6.838;2023-02-18T04:31:40;14.65;;;6.28;;
37701;SDS011;23548;51.196;6.838;2023-02-18T04:34:05;10.32;;;6.55;;
37701;SDS011;23548;51.196;6.838;2023-02-18T04:36:32;10.43;;;6.28;;
37701;SDS011;23548;51.196;6.838;2023-02-18T04:38:57;14.40;;;6.35;;
37701;SDS011;23548;51.196;6.838;2023-02-18T04:41:24;9.20;;;6.18;;
37701;SDS011;23548;51.196;6.838;2023-02-18T04:43:50;9.68;;;5.40;;
37701;SDS011;23548;51.196;6.838;2023-02-18T04:46:15;8.13;;;5.10;;
37701;SDS011;23548;51.196;6.838;2023-02-18T04:48:41;7.88;;;4.93;;
37701;SDS011;23548;51.196;6.838;2023-02-18T04:51:08;8.32;;;4.88;;
37701;SDS011;23548;51.196;6.838;2023-02-18T04:53:34;7.97;;;5.05;;
37701;SDS011;23548;51.196;6.838;2023-02-18T04:55:59;8.70;;;4.88;;
37701;SDS011;23548;51.196;6.838;2023-02-18T04:58:26;7.72;;;4.53;;
37701;SDS011;23548;51.196;6.838;2023-02-18T05:00:51;8.57;;;3.88;;
37701;SDS011;23548;51.196;6.838;2023-02-18T05:03:18;7.03;;;4.55;;
37701;SDS011;23548;51.196;6.838;2023-02-18T05:05:44;6.65;;;4.40;;
37701;SDS011;23548;51.196;6.838;2023-02-18T05:08:10;6.13;;;4.03;;
37701;SDS011;23548;51.196;6.838;2023-02-18T05:10:36;6.35;;;4.40;;
37701;SDS011;23548;51.196;6.838;2023-02-18T05:13:03;7.38;;;4.13;;
37701;SDS011;23548;51.196;6.838;2023-02-18T05:15:29;8.70;;;4.47;;
37701;SDS011;23548;51.196;6.838;2023-02-18T05:17:54;7.15;;;4.32;;
37701;SDS011;23548;51.196;6.838;2023-02-18T05:20:20;7.50;;;4.88;;
37701;SDS011;23548;51.196;6.838;2023-02-18T05:22:46;7.05;;;4.32;;
37701;SDS011;23548;51.196;6.838;2023-02-18T05:25:11;8.10;;;4.93;;
37701;SDS011;23548;51.196;6.838;2023-02-18T05:27:37;7.30;;;4.68;;
37701;SDS011;23548;51.196;6.838;2023-02-18T05:30:03;8.73;;;4.53;;
37701;SDS011;23548;51.196;6.838;2023-02-18T05:32:29;7.55;;;5.25;;
37701;SDS011;23548;51.196;6.838;2023-02-18T05:34:55;7.68;;;4.97;;
37701;SDS011;23548;51.196;6.838;2023-02-18T05:37:21;10.60;;;5.13;;
37701;SDS011;23548;51.196;6.838;2023-02-18T05:39:46;9.98;;;4.72;;
37701;SDS011;23548;51.196;6.838;2023-02-18T05:42:12;9.38;;;5.57;;
37701;SDS011;23548;51.196;6.838;2023-02-18T05:44:38;12.23;;;5.18;;
37701;SDS011;23548;51.196;6.838;2023-02-18T05:47:05;8.18;;;5.38;;
37701;SDS011;23548;51.196;6.838;2023-02-18T05:49:33;9.85;;;5.30;;
37701;SDS011;23548;51.196;6.838;2023-02-18T05:52:00;7.63;;;5.10;;
37701;SDS011;23548;51.196;6.838;2023-02-18T05:54:26;9.82;;;5.57;;
37701;SDS011;23548;51.196;6.838;2023-02-18T05:56:52;9.15;;;5.80;;
37701;SDS011;23548;51.196;6.838;2023-02-18T05:59:18;9.63;;;6.07;;
37701;SDS011;23548;51.196;6.838;2023-02-18T06:01:44;9.90;;;5.57;;
37701;SDS011;23548;51.196;6.838;2023-02-18T06:04:10;10.75;;;6.45;;
37701;SDS011;23548;51.196;6.838;2023-02-18T06:06:36;11.77;;;5.45;;
37701;SDS011;23548;51.196;6.838;2023-02-18T06:09:02;9.52;;;5.70;;
37701;SDS011;23548;51.196;6.838;2023-02-18T06:11:28;11.25;;;5.25;;
37701;SDS011;23548;51.196;6.838;2023-02-18T06:13:54;7.70;;;5.10;;
37701;SDS011;23548;51.196;6.838;2023-02-18T06:16:20;8.60;;;5.55;;
37701;SDS011;23548;51.196;6.838;2023-02-18T06:18:46;6.72;;;5.00;;
37701;SDS011;23548;51.196;6.838;2023-02-18T06:21:11;6.95;;;4.57;;
37701;SDS011;23548;51.196;6.838;2023-02-18T06:23:37;7.00;;;4.97;;
37701;SDS011;23548;51.196;6.838;2023-02-18T06:26:03;8.38;;;4.95;;
37701;SDS011;23548;51.196;6.838;2023-02-18T06:28:29;6.70;;;4.50;;
37701;SDS011;23548;51.196;6.838;2023-02-18T06:30:55;6.97;;;4.85;;
37701;SDS011;23548;51.196;6.838;2023-02-18T06:33:21;8.75;;;4.65;;
37701;SDS011;23548;51.196;6.838;2023-02-18T06:35:56;8.55;;;5.20;;
37701;SDS011;23548;51.196;6.838;2023-02-18T06:38:35;7.80;;;4.95;;
37701;SDS011;23548;51.196;6.838;2023-02-18T06:41:02;5.22;;;3.90;;
37701;SDS011;23548;51.196;6.838;2023-02-18T06:43:29;5.50;;;4.18;;
37701;SDS011;23548;51.196;6.838;2023-02-18T06:45:54;6.07;;;4.18;;
37701;SDS011;23548;51.196;6.838;2023-02-18T06:48:21;7.90;;;3.90;;
37701;SDS011;23548;51.196;6.838;2023-02-18T06:50:47;6.55;;;4.15;;
37701;SDS011;23548;51.196;6.838;2023-02-18T06:53:13;5.10;;;3.45;;
37701;SDS011;23548;51.196;6.838;2023-02-18T06:55:41;4.43;;;3.47;;
37701;SDS011;23548;51.196;6.838;2023-02-18T06:58:08;4.28;;;3.22;;
37701;SDS011;23548;51.196;6.838;2023-02-18T07:00:35;5.45;;;3.35;;
37701;SDS011;23548;51.196;6.838;2023-02-18T07:03:01;4.30;;;3.20;;
37701;SDS011;23548;51.196;6.838;2023-02-18T07:05:27;4.47;;;3.13;;
37701;SDS011;23548;51.196;6.838;2023-02-18T07:07:53;4.10;;;3.00;;
37701;SDS011;23548;51.196;6.838;2023-02-18T07:10:20;5.25;;;3.50;;
37701;SDS011;23548;51.196;6.838;2023-02-18T07:12:46;4.97;;;3.10;;
37701;SDS011;23548;51.196;6.838;2023-02-18T07:15:12;3.45;;;2.78;;
37701;SDS011;23548;51.196;6.838;2023-02-18T07:17:38;3.65;;;2.65;;
37701;SDS011;23548;51.196;6.838;2023-02-18T07:20:04;3.70;;;2.67;;
37701;SDS011;23548;51.196;6.838;2023-02-18T07:22:31;3.75;;;2.58;;
37701;SDS011;23548;51.196;6.838;2023-02-18T07:24:57;3.00;;;2.22;;
37701;SDS011;23548;51.196;6.838;2023-02-18T07:27:23;4.45;;;2.65;;
37701;SDS011;23548;51.196;6.838;2023-02-18T07:29:49;3.45;;;2.70;;
37701;SDS011;23548;51.196;6.838;2023-02-18T07:32:15;2.97;;;2.38;;
37701;SDS011;23548;51.196;6.838;2023-02-18T07:34:42;3.25;;;2.38;;
37701;SDS011;23548;51.196;6.838;2023-02-18T07:37:08;3.42;;;2.38;;
37701;SDS011;23548;51.196;6.838;2023-02-18T07:39:34;3.05;;;2.25;;
37701;SDS011;23548;51.196;6.838;2023-02-18T07:42:03;3.83;;;2.15;;
37701;SDS011;23548;51.196;6.838;2023-02-18T07:44:29;3.13;;;2.53;;
37701;SDS011;23548;51.196;6.838;2023-02-18T07:46:55;3.30;;;2.40;;
37701;SDS011;23548;51.196;6.838;2023-02-18T07:49:20;3.15;;;2.45;;
37701;SDS011;23548;51.196;6.838;2023-02-18T07:51:47;2.58;;;2.17;;
37701;SDS011;23548;51.196;6.838;2023-02-18T07:54:13;3.25;;;2.42;;
37701;SDS011;23548;51.196;6.838;2023-02-18T07:56:39;2.67;;;2.22;;
37701;SDS011;23548;51.196;6.838;2023-02-18T07:59:07;3.03;;;2.42;;
37701;SDS011;23548;51.196;6.838;2023-02-18T08:01:33;2.95;;;2.25;;
37701;SDS011;23548;51.196;6.838;2023-02-18T08:03:58;3.40;;;1.90;;
37701;SDS011;23548;51.196;6.838;2023-02-18T08:06:25;2.10;;;1.60;;
37701;SDS011;23548;51.196;6.838;2023-02-18T08:08:55;2.50;;;1.90;;
37701;SDS011;23548;51.196;6.838;2023-02-18T08:11:21;9.38;;;1.75;;
37701;SDS011;23548;51.196;6.838;2023-02-18T08:13:47;3.58;;;1.98;;
37701;SDS011;23548;51.196;6.838;2023-02-18T08:16:13;2.53;;;1.80;;
37701;SDS011;23548;51.196;6.838;2023-02-18T08:18:40;5.43;;;2.97;;
37701;SDS011;23548;51.196;6.838;2023-02-18T08:21:06;3.22;;;2.20;;
37701;SDS011;23548;51.196;6.838;2023-02-18T08:23:32;4.53;;;2.15;;
37701;SDS011;23548;51.196;6.838;2023-02-18T08:25:58;5.00;;;2.20;;
37701;SDS011;23548;51.196;6.838;2023-02-18T08:28:23;5.15;;;2.42;;
37701;SDS011;23548;51.196;6.838;2023-02-18T08:30:50;8.05;;;2.50;;
37701;SDS011;23548;51.196;6.838;2023-02-18T08:33:17;7.70;;;2.13;;
37701;SDS011;23548;51.196;6.838;2023-02-18T08:35:44;6.78;;;2.05;;
37701;SDS011;23548;51.196;6.838;2023-02-18T08:38:11;7.30;;;2.97;;
37701;SDS011;23548;51.196;6.838;2023-02-18T08:40:37;7.65;;;2.95;;
37701;SDS011;23548;51.196;6.838;2023-02-18T08:43:04;7.40;;;2.70;;
37701;SDS011;23548;51.196;6.838;2023-02-18T08:45:30;4.90;;;2.78;;
37701;SDS011;23548;51.196;6.838;2023-02-18T08:47:56;10.70;;;2.83;;
37701;SDS011;23548;51.196;6.838;2023-02-18T08:50:22;9.13;;;2.75;;
37701;SDS011;23548;51.196;6.838;2023-02-18T08:52:51;6.32;;;2.75;;
37701;SDS011;23548;51.196;6.838;2023-02-18T08:55:17;8.23;;;2.90;;
37701;SDS011;23548;51.196;6.838;2023-02-18T08:57:46;6.72;;;3.17;;
37701;SDS011;23548;51.196;6.838;2023-02-18T09:00:13;7.47;;;3.03;;
37701;SDS011;23548;51.196;6.838;2023-02-18T09:02:40;8.40;;;2.85;;
37701;SDS011;23548;51.196;6.838;2023-02-18T09:05:06;10.60;;;2.90;;
37701;SDS011;23548;51.196;6.838;2023-02-18T09:07:34;8.23;;;2.60;;
37701;SDS011;23548;51.196;6.838;2023-02-18T09:10:00;9.93;;;3.10;;
37701;SDS011;23548;51.196;6.838;2023-02-18T09:12:27;9.30;;;2.58;;
37701;SDS011;23548;51.196;6.838;2023-02-18T09:14:53;11.25;;;2.97;;
37701;SDS011;23548;51.196;6.838;2023-02-18T09:17:18;13.68;;;2.97;;
37701;SDS011;23548;51.196;6.838;2023-02-18T09:19:45;14.75;;;3.05;;
37701;SDS011;23548;51.196;6.838;2023-02-18T09:22:10;8.32;;;2.45;;
37701;SDS011;23548;51.196;6.838;2023-02-18T09:24:37;7.50;;;3.28;;
37701;SDS011;23548;51.196;6.838;2023-02-18T09:27:03;11.30;;;2.60;;
37701;SDS011;23548;51.196;6.838;2023-02-18T09:29:30;10.52;;;3.40;;
37701;SDS011;23548;51.196;6.838;2023-02-18T09:32:00;7.68;;;3.22;;
37701;SDS011;23548;51.196;6.838;2023-02-18T09:34:26;11.20;;;2.88;;
37701;SDS011;23548;51.196;6.838;2023-02-18T09:36:52;8.10;;;3.10;;
37701;SDS011;23548;51.196;6.838;2023-02-18T09:39:19;13.15;;;2.88;;
37701;SDS011;23548;51.196;6.838;2023-02-18T09:42:19;15.32;;;4.10;;
37701;SDS011;23548;51.196;6.838;2023-02-18T09:47:12;14.68;;;3.33;;
37701;SDS011;23548;51.196;6.838;2023-02-18T09:49:43;10.93;;;3.25;;
37701;SDS011;23548;51.196;6.838;2023-02-18T09:54:52;10.52;;;3.42;;
37701;SDS011;23548;51.196;6.838;2023-02-18T09:57:34;9.00;;;2.55;;
37701;SDS011;23548;51.196;6.838;2023-02-18T10:00:51;12.80;;;3.20;;
37701;SDS011;23548;51.196;6.838;2023-02-18T10:03:35;6.68;;;3.08;;
37701;SDS011;23548;51.196;6.838;2023-02-18T10:05:58;8.68;;;3.08;;
37701;SDS011;23548;51.196;6.838;2023-02-18T10:08:41;11.57;;;3.28;;
37701;SDS011;23548;51.196;6.838;2023-02-18T10:11:11;16.17;;;3.05;;
37701;SDS011;23548;51.196;6.838;2023-02-18T10:13:44;12.20;;;2.80;;
37701;SDS011;23548;51.196;6.838;2023-02-18T10:16:13;9.50;;;3.00;;
37701;SDS011;23548;51.196;6.838;2023-02-18T10:18:43;16.50;;;3.28;;
37701;SDS011;23548;51.196;6.838;2023-02-18T10:21:20;7.90;;;2.67;;
37701;SDS011;23548;51.196;6.838;2023-02-18T10:23:53;11.07;;;2.95;;
37701;SDS011;23548;51.196;6.838;2023-02-18T10:26:50;14.50;;;3.58;;
37701;SDS011;23548;51.196;6.838;2023-02-18T10:29:17;9.48;;;3.25;;
37701;SDS011;23548;51.196;6.838;2023-02-18T10:31:46;13.63;;;3.22;;
37701;SDS011;23548;51.196;6.838;2023-02-18T10:37:03;10.88;;;3.20;;
37701;SDS011;23548;51.196;6.838;2023-02-18T10:42:04;14.55;;;3.28;;
37701;SDS011;23548;51.196;6.838;2023-02-18T10:57:28;13.30;;;3.88;;
37701;SDS011;23548;51.196;6.838;2023-02-18T10:59:56;15.95;;;4.30;;
37701;SDS011;23548;51.196;6.838;2023-02-18T11:02:23;16.02;;;3.92;;
37701;SDS011;23548;51.196;6.838;2023-02-18T11:04:59;13.68;;;4.53;;
37701;SDS011;23548;51.196;6.838;2023-02-18T11:07:40;14.65;;;4.45;;
37701;SDS011;23548;51.196;6.838;2023-02-18T11:12:49;13.90;;;5.43;;
37701;SDS011;23548;51.196;6.838;2023-02-18T11:15:21;11.88;;;5.05;;
37701;SDS011;23548;51.196;6.838;2023-02-18T11:17:50;13.02;;;5.50;;
37701;SDS011;23548;51.196;6.838;2023-02-18T11:20:29;13.05;;;6.05;;
37701;SDS011;23548;51.196;6.838;2023-02-18T11:25:33;10.27;;;5.78;;
37701;SDS011;23548;51.196;6.838;2023-02-18T11:28:01;10.35;;;5.18;;
37701;SDS011;23548;51.196;6.838;2023-02-18T11:30:47;14.88;;;5.28;;
37701;SDS011;23548;51.196;6.838;2023-02-18T11:33:23;11.70;;;5.32;;
37701;SDS011;23548;51.196;6.838;2023-02-18T11:35:53;8.80;;;4.95;;
37701;SDS011;23548;51.196;6.838;2023-02-18T11:38:37;8.50;;;4.30;;
37701;SDS011;23548;51.196;6.838;2023-02-18T11:41:09;7.75;;;4.78;;
37701;SDS011;23548;51.196;6.838;2023-02-18T11:43:42;10.55;;;4.72;;
37701;SDS011;23548;51.196;6.838;2023-02-18T11:46:20;8.68;;;4.80;;
37701;SDS011;23548;51.196;6.838;2023-02-18T11:48:48;11.05;;;4.53;;
37701;SDS011;23548;51.196;6.838;2023-02-18T11:51:15;9.43;;;5.55;;
37701;SDS011;23548;51.196;6.838;2023-02-18T11:53:52;11.00;;;5.22;;
37701;SDS011;23548;51.196;6.838;2023-02-18T11:56:30;11.30;;;5.60;;
37701;SDS011;23548;51.196;6.838;2023-02-18T11:58:58;11.70;;;5.13;;
37701;SDS011;23548;51.196;6.838;2023-02-18T12:04:06;8.90;;;4.93;;
37701;SDS011;23548;51.196;6.838;2023-02-18T12:06:45;14.15;;;5.55;;
37701;SDS011;23548;51.196;6.838;2023-02-18T12:09:28;11.27;;;5.20;;
37701;SDS011;23548;51.196;6.838;2023-02-18T12:11:59;9.10;;;4.68;;
37701;SDS011;23548;51.196;6.838;2023-02-18T12:14:30;9.25;;;5.03;;
37701;SDS011;23548;51.196;6.838;2023-02-18T12:26:36;9.23;;;5.43;;
37701;SDS011;23548;51.196;6.838;2023-02-18T12:43:21;11.40;;;6.63;;
37701;SDS011;23548;51.196;6.838;2023-02-18T12:54:23;23.90;;;15.02;;
37701;SDS011;23548;51.196;6.838;2023-02-18T12:57:09;11.13;;;7.60;;
37701;SDS011;23548;51.196;6.838;2023-02-18T12:59:52;12.20;;;7.75;;
37701;SDS011;23548;51.196;6.838;2023-02-18T13:05:01;10.93;;;6.13;;
37701;SDS011;23548;51.196;6.838;2023-02-18T13:07:56;9.68;;;5.93;;
37701;SDS011;23548;51.196;6.838;2023-02-18T13:13:15;11.00;;;6.07;;
37701;SDS011;23548;51.196;6.838;2023-02-18T13:18:15;9.85;;;6.32;;
37701;SDS011;23548;51.196;6.838;2023-02-18T13:20:54;9.35;;;6.20;;
37701;SDS011;23548;51.196;6.838;2023-02-18T13:23:59;11.88;;;7.03;;
37701;SDS011;23548;51.196;6.838;2023-02-18T13:26:32;9.30;;;6.10;;
37701;SDS011;23548;51.196;6.838;2023-02-18T13:29:15;14.32;;;6.82;;
37701;SDS011;23548;51.196;6.838;2023-02-18T13:34:30;8.00;;;6.68;;
37701;SDS011;23548;51.196;6.838;2023-02-18T13:37:14;10.55;;;7.03;;
37701;SDS011;23548;51.196;6.838;2023-02-18T13:39:54;10.73;;;6.75;;
37701;SDS011;23548;51.196;6.838;2023-02-18T13:47:39;11.10;;;7.72;;
37701;SDS011;23548;51.196;6.838;2023-02-18T13:50:28;16.00;;;7.70;;
37701;SDS011;23548;51.196;6.838;2023-02-18T13:56:18;11.70;;;6.88;;
37701;SDS011;23548;51.196;6.838;2023-02-18T13:58:37;11.55;;;7.30;;
37701;SDS011;23548;51.196;6.838;2023-02-18T14:06:18;17.45;;;7.70;;
37701;SDS011;23548;51.196;6.838;2023-02-18T14:08:45;13.95;;;8.13;;
37701;SDS011;23548;51.196;6.838;2023-02-18T14:13:54;10.95;;;6.72;;
37701;SDS011;23548;51.196;6.838;2023-02-18T14:19:43;12.23;;;7.80;;
37701;SDS011;23548;51.196;6.838;2023-02-18T14:22:47;11.77;;;6.80;;
37701;SDS011;23548;51.196;6.838;2023-02-18T14:27:49;12.23;;;7.53;;
37701;SDS011;23548;51.196;6.838;2023-02-18T14:32:47;11.95;;;7.28;;
37701;SDS011;23548;51.196;6.838;2023-02-18T14:52:39;13.38;;;8.10;;
37701;SDS011;23548;51.196;6.838;2023-02-18T14:55:07;10.60;;;7.07;;
37701;SDS011;23548;51.196;6.838;2023-02-18T14:57:46;10.38;;;6.93;;
37701;SDS011;23548;51.196;6.838;2023-02-18T15:00:17;13.18;;;7.65;;
37701;SDS011;23548;51.196;6.838;2023-02-18T15:02:49;11.25;;;6.88;;
37701;SDS011;23548;51.196;6.838;2023-02-18T15:05:18;12.82;;;7.70;;
37701;SDS011;23548;51.196;6.838;2023-02-18T15:07:55;9.63;;;7.22;;
37701;SDS011;23548;51.196;6.838;2023-02-18T15:13:22;9.77;;;7.15;;
37701;SDS011;23548;51.196;6.838;2023-02-18T15:15:57;9.05;;;6.88;;
37701;SDS011;23548;51.196;6.838;2023-02-18T15:18:36;11.15;;;7.22;;
37701;SDS011;23548;51.196;6.838;2023-02-18T15:21:12;13.05;;;8.18;;
37701;SDS011;23548;51.196;6.838;2023-02-18T15:26:45;11.30;;;7.88;;
37701;SDS011;23548;51.196;6.838;2023-02-18T15:29:18;10.88;;;7.75;;
37701;SDS011;23548;51.196;6.838;2023-02-18T15:31:47;10.32;;;7.95;;
37701;SDS011;23548;51.196;6.838;2023-02-18T15:37:01;10.13;;;8.07;;
37701;SDS011;23548;51.196;6.838;2023-02-18T15:39:33;10.65;;;8.00;;
37701;SDS011;23548;51.196;6.838;2023-02-18T15:42:21;15.38;;;8.65;;
37701;SDS011;23548;51.196;6.838;2023-02-18T15:45:08;12.85;;;7.90;;
37701;SDS011;23548;51.196;6.838;2023-02-18T15:47:49;11.68;;;8.57;;
37701;SDS011;23548;51.196;6.838;2023-02-18T15:50:19;12.63;;;8.50;;
37701;SDS011;23548;51.196;6.838;2023-02-18T15:52:54;11.27;;;7.78;;
37701;SDS011;23548;51.196;6.838;2023-02-18T15:55:34;12.52;;;7.90;;
37701;SDS011;23548;51.196;6.838;2023-02-18T15:58:13;11.02;;;8.10;;
37701;SDS011;23548;51.196;6.838;2023-02-18T16:00:41;12.30;;;8.00;;
37701;SDS011;23548;51.196;6.838;2023-02-18T16:03:21;12.38;;;7.95;;
37701;SDS011;23548;51.196;6.838;2023-02-18T16:05:51;10.13;;;6.82;;
37701;SDS011;23548;51.196;6.838;2023-02-18T16:09:00;11.88;;;7.18;;
37701;SDS011;23548;51.196;6.838;2023-02-18T16:12:03;10.52;;;7.28;;
37701;SDS011;23548;51.196;6.838;2023-02-18T16:14:44;14.60;;;7.88;;
37701;SDS011;23548;51.196;6.838;2023-02-18T16:19:59;16.40;;;8.35;;
37701;SDS011;23548;51.196;6.838;2023-02-18T16:22:46;11.80;;;7.60;;
37701;SDS011;23548;51.196;6.838;2023-02-18T16:30:22;12.07;;;7.05;;
37701;SDS011;23548;51.196;6.838;2023-02-18T16:32:50;13.63;;;7.80;;
37701;SDS011;23548;51.196;6.838;2023-02-18T16:35:17;12.32;;;8.00;;
37701;SDS011;23548;51.196;6.838;2023-02-18T16:37:43;10.27;;;7.03;;
37701;SDS011;23548;51.196;6.838;2023-02-18T16:42:46;13.27;;;7.97;;
37701;SDS011;23548;51.196;6.838;2023-02-18T16:45:12;11.65;;;7.65;;
37701;SDS011;23548;51.196;6.838;2023-02-18T16:47:40;11.70;;;8.13;;
37701;SDS011;23548;51.196;6.838;2023-02-18T16:50:19;12.70;;;8.40;;
37701;SDS011;23548;51.196;6.838;2023-02-18T16:52:46;13.25;;;8.25;;
37701;SDS011;23548;51.196;6.838;2023-02-18T16:55:20;12.85;;;7.70;;
37701;SDS011;23548;51.196;6.838;2023-02-18T16:57:48;12.02;;;8.57;;
37701;SDS011;23548;51.196;6.838;2023-02-18T17:00:15;10.15;;;7.80;;
37701;SDS011;23548;51.196;6.838;2023-02-18T17:02:45;14.00;;;8.50;;
37701;SDS011;23548;51.196;6.838;2023-02-18T17:05:18;11.40;;;8.73;;
37701;SDS011;23548;51.196;6.838;2023-02-18T17:07:48;15.07;;;9.32;;
37701;SDS011;23548;51.196;6.838;2023-02-18T17:10:14;13.25;;;8.90;;
37701;SDS011;23548;51.196;6.838;2023-02-18T17:12:39;13.50;;;8.43;;
37701;SDS011;23548;51.196;6.838;2023-02-18T17:17:59;13.60;;;8.68;;
37701;SDS011;23548;51.196;6.838;2023-02-18T17:20:26;15.52;;;8.82;;
37701;SDS011;23548;51.196;6.838;2023-02-18T17:22:52;14.07;;;8.60;;
37701;SDS011;23548;51.196;6.838;2023-02-18T17:25:30;13.32;;;8.85;;
37701;SDS011;23548;51.196;6.838;2023-02-18T17:27:56;18.70;;;9.48;;
37701;SDS011;23548;51.196;6.838;2023-02-18T17:30:22;15.55;;;8.65;;
37701;SDS011;23548;51.196;6.838;2023-02-18T17:32:48;16.00;;;8.55;;
37701;SDS011;23548;51.196;6.838;2023-02-18T17:35:18;14.75;;;8.85;;
37701;SDS011;23548;51.196;6.838;2023-02-18T17:37:46;14.93;;;8.60;;
37701;SDS011;23548;51.196;6.838;2023-02-18T17:40:16;12.85;;;8.55;;
37701;SDS011;23548;51.196;6.838;2023-02-18T17:42:46;18.10;;;12.07;;
37701;SDS011;23548;51.196;6.838;2023-02-18T17:45:14;17.85;;;10.30;;
37701;SDS011;23548;51.196;6.838;2023-02-18T17:47:42;14.60;;;9.23;;
37701;SDS011;23548;51.196;6.838;2023-02-18T17:50:08;10.00;;;8.32;;
37701;SDS011;23548;51.196;6.838;2023-02-18T17:52:34;16.33;;;9.60;;
37701;SDS011;23548;51.196;6.838;2023-02-18T17:55:00;14.02;;;9.45;;
37701;SDS011;23548;51.196;6.838;2023-02-18T17:57:35;13.77;;;10.13;;